createdAt,value
2023-04-16T00:01:51.171Z,11.38
2023-04-16T00:04:18.541Z,10.24
2023-04-16T00:06:45.854Z,11.36
2023-04-16T00:09:13.298Z,11.17
2023-04-16T00:11:40.398Z,11.60
2023-04-16T00:14:07.413Z,11.49
2023-04-16T00:16:34.813Z,11.30
2023-04-16T00:19:01.875Z,11.47
2023-04-16T00:21:29.243Z,11.39
2023-04-16T00:23:56.336Z,11.15
2023-04-16T00:26:23.488Z,11.15
2023-04-16T00:28:50.894Z,10.92
2023-04-16T00:31:18.044Z,11.04
2023-04-16T00:33:45.046Z,10.82
2023-04-16T00:36:12.133Z,10.99
2023-04-16T00:38:39.173Z,11.04
2023-04-16T00:41:06.177Z,11.03
2023-04-16T00:43:33.354Z,10.87
2023-04-16T00:46:00.686Z,10.65
2023-04-16T00:48:28.320Z,10.28
2023-04-16T00:50:56.212Z,10.91
2023-04-16T00:53:23.941Z,10.68
2023-04-16T00:55:51.215Z,10.82
2023-04-16T00:58:18.801Z,10.65
2023-04-16T01:00:45.799Z,10.74
2023-04-16T01:03:13.089Z,10.78
2023-04-16T01:05:41.060Z,10.63
2023-04-16T01:08:16.868Z,10.56
2023-04-16T01:10:43.857Z,10.68
2023-04-16T01:13:11.419Z,10.19
2023-04-16T01:15:38.834Z,10.59
2023-04-16T01:18:20.853Z,10.55
2023-04-16T01:20:49.315Z,10.41
2023-04-16T01:23:18.663Z,10.37
2023-04-16T01:25:46.685Z,10.47
2023-04-16T01:28:13.930Z,10.36
2023-04-16T01:30:41.652Z,10.18
2023-04-16T01:33:31.615Z,10.17
2023-04-16T01:35:59.752Z,10.11
2023-04-16T01:38:26.797Z,10.30
2023-04-16T01:41:00.344Z,10.17
2023-04-16T01:43:27.408Z,9.82
2023-04-16T01:46:11.249Z,10.20
2023-04-16T01:48:38.386Z,10.22
2023-04-16T01:51:05.752Z,10.19
2023-04-16T01:53:33.255Z,10.21
2023-04-16T01:56:01.495Z,10.30
2023-04-16T01:58:29.794Z,10.32
2023-04-16T02:00:57.093Z,10.34
2023-04-16T02:03:25.039Z,10.36
2023-04-16T02:05:53.147Z,10.37
2023-04-16T02:08:20.502Z,10.31
2023-04-16T02:10:48.164Z,10.32
2023-04-16T02:13:16.461Z,10.36
2023-04-16T02:15:50.884Z,10.36
2023-04-16T02:18:45.370Z,10.11
2023-04-16T02:21:14.636Z,10.27
2023-04-16T02:23:45.991Z,10.30
2023-04-16T02:26:13.771Z,10.31
2023-04-16T02:28:41.584Z,10.28
2023-04-16T02:31:11.104Z,10.43
2023-04-16T02:33:43.532Z,10.35
2023-04-16T02:36:11.347Z,10.24
2023-04-16T02:38:38.332Z,10.30
2023-04-16T02:41:07.519Z,10.37
2023-04-16T02:43:35.075Z,10.52
2023-04-16T02:46:02.731Z,10.29
2023-04-16T02:48:30.166Z,10.47
2023-04-16T02:50:57.227Z,10.51
2023-04-16T02:53:24.642Z,10.31
2023-04-16T02:55:54.806Z,10.38
2023-04-16T02:58:24.316Z,10.29
2023-04-16T03:00:55.146Z,10.41
2023-04-16T03:03:22.482Z,10.39
2023-04-16T03:05:49.727Z,10.35
2023-04-16T03:08:16.934Z,9.71
2023-04-16T03:10:43.821Z,10.31
2023-04-16T03:13:11.110Z,10.40
2023-04-16T03:15:39.905Z,10.38
2023-04-16T03:18:07.219Z,9.30
2023-04-16T03:20:34.264Z,10.25
2023-04-16T03:23:01.710Z,10.33
2023-04-16T03:25:28.809Z,10.23
2023-04-16T03:27:56.685Z,9.96
2023-04-16T03:30:24.208Z,10.10
2023-04-16T03:32:52.085Z,10.22
2023-04-16T03:35:19.547Z,10.27
2023-04-16T03:37:46.489Z,10.26
2023-04-16T03:40:14.361Z,9.99
2023-04-16T03:42:42.138Z,10.39
2023-04-16T03:45:09.616Z,10.05
2023-04-16T03:47:38.296Z,10.43
2023-04-16T03:50:06.203Z,10.38
2023-04-16T03:52:33.353Z,10.23
2023-04-16T03:55:00.382Z,10.28
2023-04-16T03:57:32.468Z,10.31
2023-04-16T04:00:09.313Z,10.18
2023-04-16T04:02:49.380Z,10.25
2023-04-16T04:05:19.760Z,10.38
2023-04-16T04:07:47.871Z,10.46
2023-04-16T04:10:15.747Z,9.76
2023-04-16T04:12:44.059Z,10.37
2023-04-16T04:15:11.901Z,10.50
2023-04-16T04:17:38.956Z,10.62
2023-04-16T04:20:06.733Z,10.64
2023-04-16T04:22:33.961Z,10.65
2023-04-16T04:25:00.915Z,10.76
2023-04-16T04:27:30.855Z,10.92
2023-04-16T04:29:58.166Z,10.88
2023-04-16T04:32:25.600Z,10.73
2023-04-16T04:34:52.735Z,10.81
2023-04-16T04:37:20.758Z,10.84
2023-04-16T04:39:47.918Z,10.83
2023-04-16T04:42:18.616Z,10.88
2023-04-16T04:44:46.760Z,10.78
2023-04-16T04:47:15.134Z,11.10
2023-04-16T04:49:42.415Z,11.06
2023-04-16T04:52:09.537Z,11.12
2023-04-16T04:54:36.592Z,11.10
2023-04-16T04:57:03.537Z,11.02
2023-04-16T04:59:30.852Z,11.19
2023-04-16T05:01:58.106Z,11.15
2023-04-16T05:04:25.649Z,11.17
2023-04-16T05:06:52.631Z,11.36
2023-04-16T05:09:20.766Z,11.26
2023-04-16T05:11:47.758Z,11.49
2023-04-16T05:14:14.773Z,11.53
2023-04-16T05:16:41.893Z,11.54
2023-04-16T05:19:09.422Z,11.59
2023-04-16T05:21:37.032Z,11.59
2023-04-16T05:24:04.244Z,11.66
2023-04-16T05:26:31.196Z,11.55
2023-04-16T05:28:58.471Z,11.80
2023-04-16T05:31:26.487Z,11.92
2023-04-16T05:33:53.591Z,12.03
2023-04-16T05:36:20.767Z,12.23
2023-04-16T05:38:47.786Z,12.31
2023-04-16T05:41:14.791Z,12.39
2023-04-16T05:43:41.885Z,12.31
2023-04-16T05:46:09.045Z,12.71
2023-04-16T05:48:36.215Z,12.79
2023-04-16T05:51:03.478Z,12.75
2023-04-16T05:53:30.579Z,12.87
2023-04-16T05:55:57.822Z,12.93
2023-04-16T05:58:24.894Z,12.95
2023-04-16T06:00:52.192Z,12.99
2023-04-16T06:03:19.294Z,12.71
2023-04-16T06:05:46.543Z,12.77
2023-04-16T06:08:13.630Z,13.08
2023-04-16T06:10:40.924Z,13.05
2023-04-16T06:13:07.986Z,13.25
2023-04-16T06:15:35.113Z,13.37
2023-04-16T06:18:02.246Z,13.38
2023-04-16T06:20:29.758Z,13.47
2023-04-16T06:22:57.238Z,13.39
2023-04-16T06:25:24.296Z,13.38
2023-04-16T06:27:51.479Z,13.60
2023-04-16T06:30:20.002Z,13.64
2023-04-16T06:32:47.223Z,13.95
2023-04-16T06:35:14.388Z,13.61
2023-04-16T06:37:41.617Z,13.92
2023-04-16T06:40:09.157Z,14.20
2023-04-16T06:42:36.392Z,14.20
2023-04-16T06:45:03.771Z,14.26
2023-04-16T06:47:32.446Z,14.48
2023-04-16T06:49:59.438Z,14.74
2023-04-16T06:52:26.511Z,14.90
2023-04-16T06:54:53.463Z,15.19
2023-04-16T06:57:20.799Z,15.24
2023-04-16T06:59:47.927Z,15.11
2023-04-16T07:02:15.108Z,15.12
2023-04-16T07:04:42.132Z,15.12
2023-04-16T07:07:09.303Z,15.17
2023-04-16T07:09:36.656Z,15.15
2023-04-16T07:12:03.993Z,14.95
2023-04-16T07:14:31.176Z,15.28
2023-04-16T07:16:58.450Z,15.16
2023-04-16T07:19:26.036Z,15.08
2023-04-16T07:21:53.236Z,15.22
2023-04-16T07:24:20.337Z,15.29
2023-04-16T07:26:47.397Z,15.31
2023-04-16T07:29:14.481Z,15.63
2023-04-16T07:31:41.791Z,15.62
2023-04-16T07:34:09.271Z,15.71
2023-04-16T07:36:36.378Z,15.79
2023-04-16T07:39:05.176Z,15.84
2023-04-16T07:41:32.484Z,15.78
2023-04-16T07:43:59.745Z,16.36
2023-04-16T07:46:33.125Z,16.46
2023-04-16T07:49:06.996Z,16.63
2023-04-16T07:51:34.030Z,16.83
2023-04-16T07:54:08.703Z,16.79
2023-04-16T07:56:36.249Z,17.11
2023-04-16T07:59:14.903Z,17.22
2023-04-16T08:01:46.603Z,17.37
2023-04-16T08:04:23.015Z,17.39
2023-04-16T08:06:51.653Z,17.55
2023-04-16T08:09:23.475Z,17.38
2023-04-16T08:11:51.653Z,17.43
2023-04-16T08:14:18.620Z,17.65
2023-04-16T08:16:45.754Z,17.84
2023-04-16T08:19:13.066Z,17.81
2023-04-16T08:21:40.779Z,17.83
2023-04-16T08:24:08.139Z,18.06
2023-04-16T08:26:35.450Z,18.16
2023-04-16T08:29:02.548Z,18.26
2023-04-16T08:31:29.848Z,18.05
2023-04-16T08:33:57.046Z,17.91
2023-04-16T08:36:24.251Z,18.07
2023-04-16T08:38:52.480Z,18.16
2023-04-16T08:41:22.185Z,17.90
2023-04-16T08:43:51.379Z,18.04
2023-04-16T08:46:22.730Z,18.27
2023-04-16T08:48:54.312Z,18.48
2023-04-16T08:51:22.678Z,18.90
2023-04-16T08:53:53.318Z,19.30
2023-04-16T08:56:23.165Z,19.62
2023-04-16T08:58:51.370Z,20.02
2023-04-16T09:01:19.717Z,19.92
2023-04-16T09:03:48.872Z,19.93
2023-04-16T09:06:16.812Z,19.67
2023-04-16T09:08:48.443Z,19.50
2023-04-16T09:11:18.537Z,19.36
2023-04-16T09:13:47.583Z,19.36
2023-04-16T09:16:15.393Z,19.58
2023-04-16T09:18:42.522Z,19.72
2023-04-16T09:21:12.974Z,19.95
2023-04-16T09:23:40.655Z,19.68
2023-04-16T09:26:07.712Z,19.68
2023-04-16T09:28:48.209Z,19.80
2023-04-16T09:31:17.274Z,19.73
2023-04-16T09:34:01.006Z,19.71
2023-04-16T09:36:28.293Z,19.88
2023-04-16T09:38:57.616Z,19.95
2023-04-16T09:41:31.345Z,20.08
2023-04-16T09:44:05.123Z,20.23
2023-04-16T09:46:35.356Z,19.73
2023-04-16T09:49:10.699Z,19.54
2023-04-16T09:51:40.813Z,19.15
2023-04-16T09:54:08.383Z,19.13
2023-04-16T09:56:46.848Z,19.38
2023-04-16T09:59:21.558Z,19.42
2023-04-16T10:01:50.372Z,19.45
2023-04-16T10:04:17.676Z,19.65
2023-04-16T10:06:46.934Z,19.77
2023-04-16T10:09:13.928Z,19.69
2023-04-16T10:11:42.839Z,19.84
2023-04-16T10:14:11.163Z,20.11
2023-04-16T10:16:41.158Z,20.39
2023-04-16T10:19:11.451Z,20.57
2023-04-16T10:21:38.806Z,20.65
2023-04-16T10:24:06.495Z,20.87
2023-04-16T10:26:33.729Z,20.70
2023-04-16T10:29:01.398Z,20.73
2023-04-16T10:31:29.403Z,20.74
2023-04-16T10:33:57.926Z,20.99
2023-04-16T10:36:26.752Z,21.23
2023-04-16T10:38:58.487Z,21.15
2023-04-16T10:41:28.973Z,21.33
2023-04-16T10:44:06.637Z,21.33
2023-04-16T10:46:36.731Z,21.84
2023-04-16T10:49:15.127Z,21.95
2023-04-16T10:51:42.628Z,22.13
2023-04-16T10:54:11.221Z,22.41
2023-04-16T10:56:38.395Z,22.42
2023-04-16T10:59:06.769Z,22.59
2023-04-16T11:01:41.119Z,22.41
2023-04-16T11:04:20.650Z,22.32
2023-04-16T11:07:07.244Z,22.01
2023-04-16T11:10:12.779Z,21.74
2023-04-16T11:12:46.378Z,21.95
2023-04-16T11:15:16.042Z,21.77
2023-04-16T11:17:45.268Z,22.14
2023-04-16T11:20:19.130Z,22.09
2023-04-16T11:22:53.057Z,22.37
2023-04-16T11:25:26.947Z,21.76
2023-04-16T11:27:54.807Z,22.14
2023-04-16T11:30:30.520Z,21.61
2023-04-16T11:32:57.607Z,21.26
2023-04-16T11:35:24.904Z,20.87
2023-04-16T11:37:56.432Z,21.23
2023-04-16T11:40:23.693Z,20.99
2023-04-16T11:42:50.807Z,21.05
2023-04-16T11:45:20.844Z,21.34
2023-04-16T11:47:52.580Z,21.21
2023-04-16T11:50:24.880Z,21.09
2023-04-16T11:52:53.752Z,21.08
2023-04-16T11:55:22.091Z,21.07
2023-04-16T11:57:50.111Z,21.11
2023-04-16T12:00:19.267Z,21.24
2023-04-16T12:02:54.053Z,20.42
2023-04-16T12:05:39.151Z,20.92
2023-04-16T12:08:09.432Z,21.22
2023-04-16T12:10:38.730Z,21.15
2023-04-16T12:13:15.400Z,21.32
2023-04-16T12:15:48.660Z,21.57
2023-04-16T12:18:17.059Z,21.52
2023-04-16T12:20:45.312Z,21.65
2023-04-16T12:23:32.925Z,21.54
2023-04-16T12:26:10.570Z,22.00
2023-04-16T12:28:41.780Z,22.00
2023-04-16T12:31:10.791Z,22.44
2023-04-16T12:33:37.983Z,22.65
2023-04-16T12:36:20.308Z,22.74
2023-04-16T12:38:47.455Z,22.50
2023-04-16T12:41:14.510Z,22.28
2023-04-16T12:43:41.459Z,22.13
2023-04-16T12:46:08.515Z,21.99
2023-04-16T12:48:35.671Z,21.75
2023-04-16T12:51:03.046Z,21.47
2023-04-16T12:53:30.105Z,21.17
2023-04-16T12:55:57.150Z,20.97
2023-04-16T12:58:24.200Z,20.67
2023-04-16T13:00:51.278Z,20.53
2023-04-16T13:03:18.459Z,20.43
2023-04-16T13:05:45.587Z,20.30
2023-04-16T13:08:13.058Z,20.03
2023-04-16T13:10:40.113Z,19.85
2023-04-16T13:13:25.823Z,19.82
2023-04-16T13:15:52.935Z,19.65
2023-04-16T13:18:20.096Z,19.79
2023-04-16T13:20:47.069Z,19.53
2023-04-16T13:23:14.068Z,19.55
2023-04-16T13:25:41.205Z,19.44
2023-04-16T13:28:08.440Z,19.14
2023-04-16T13:30:35.644Z,18.74
2023-04-16T13:33:02.887Z,18.38
2023-04-16T13:35:30.993Z,18.05
2023-04-16T13:37:57.997Z,18.20
2023-04-16T13:40:25.139Z,18.05
2023-04-16T13:42:52.147Z,17.91
2023-04-16T13:45:20.667Z,17.82
2023-04-16T13:47:47.870Z,17.75
2023-04-16T13:50:16.309Z,17.66
2023-04-16T13:52:43.410Z,17.63
2023-04-16T13:55:10.769Z,17.52
2023-04-16T13:57:38.134Z,17.54
2023-04-16T14:00:05.814Z,17.51
2023-04-16T14:02:33.709Z,17.52
2023-04-16T14:05:00.731Z,17.42
2023-04-16T14:07:27.844Z,17.42
2023-04-16T14:09:54.931Z,17.24
2023-04-16T14:12:22.147Z,17.19
2023-04-16T14:14:49.351Z,16.72
2023-04-16T14:17:16.426Z,17.09
2023-04-16T14:19:43.433Z,16.81
2023-04-16T14:22:10.458Z,16.68
2023-04-16T14:24:37.461Z,16.37
2023-04-16T14:27:04.534Z,16.29
2023-04-16T14:29:31.548Z,16.18
2023-04-16T14:31:58.885Z,16.08
2023-04-16T14:34:25.850Z,16.25
2023-04-16T14:36:53.159Z,16.13
2023-04-16T14:39:20.273Z,15.98
2023-04-16T14:41:47.326Z,15.89
2023-04-16T14:44:14.907Z,15.89
2023-04-16T14:46:41.830Z,15.77
2023-04-16T14:49:11.961Z,15.83
2023-04-16T14:51:39.733Z,15.55
2023-04-16T14:54:06.934Z,14.88
2023-04-16T14:56:34.005Z,15.08
2023-04-16T14:59:01.040Z,15.02
2023-04-16T15:01:28.770Z,14.81
2023-04-16T15:03:57.115Z,14.53
2023-04-16T15:06:24.511Z,14.45
2023-04-16T15:08:51.728Z,14.57
2023-04-16T15:11:18.738Z,14.54
2023-04-16T15:13:45.704Z,14.66
2023-04-16T15:16:13.174Z,14.68
2023-04-16T15:18:40.480Z,14.41
2023-04-16T15:21:07.476Z,14.41
2023-04-16T15:23:34.635Z,14.23
2023-04-16T15:26:01.793Z,14.12
2023-04-16T15:28:28.959Z,14.30
2023-04-16T15:30:56.644Z,14.12
2023-04-16T15:33:23.752Z,14.12
2023-04-16T15:35:51.724Z,13.96
2023-04-16T15:38:21.311Z,13.93
2023-04-16T15:40:48.323Z,14.04
2023-04-16T15:43:16.014Z,14.15
2023-04-16T15:45:43.092Z,14.09
2023-04-16T15:48:10.270Z,14.04
2023-04-16T15:50:37.560Z,13.83
2023-04-16T15:53:04.818Z,13.87
2023-04-16T15:55:31.952Z,13.84
2023-04-16T15:57:58.920Z,14.07
2023-04-16T16:00:26.386Z,13.91
2023-04-16T16:02:53.558Z,14.10
2023-04-16T16:05:20.903Z,14.18
2023-04-16T16:07:48.006Z,14.20
2023-04-16T16:10:17.075Z,14.15
2023-04-16T16:12:44.568Z,13.92
2023-04-16T16:15:12.064Z,13.73
2023-04-16T16:17:40.586Z,13.95
2023-04-16T16:20:10.714Z,13.70
2023-04-16T16:22:38.372Z,13.63
2023-04-16T16:25:06.049Z,13.63
2023-04-16T16:27:32.994Z,13.83
2023-04-16T16:30:01.112Z,13.89
2023-04-16T16:32:28.325Z,13.76
2023-04-16T16:34:56.028Z,13.74
2023-04-16T16:37:23.097Z,13.72
2023-04-16T16:39:50.524Z,13.55
2023-04-16T16:42:19.004Z,13.62
2023-04-16T16:44:49.438Z,13.28
2023-04-16T16:47:16.578Z,13.43
2023-04-16T16:49:44.083Z,13.29
2023-04-16T16:52:11.122Z,13.13
2023-04-16T16:54:38.184Z,13.06
2023-04-16T16:57:05.209Z,12.94
2023-04-16T16:59:32.158Z,12.72
2023-04-16T17:01:59.252Z,12.86
2023-04-16T17:04:26.291Z,13.15
2023-04-16T17:06:53.454Z,13.18
2023-04-16T17:09:20.445Z,13.13
2023-04-16T17:11:47.508Z,13.02
2023-04-16T17:14:14.493Z,13.04
2023-04-16T17:16:41.629Z,12.86
2023-04-16T17:19:08.938Z,12.91
2023-04-16T17:21:36.285Z,12.77
2023-04-16T17:24:03.809Z,12.78
2023-04-16T17:26:31.940Z,12.88
2023-04-16T17:28:59.437Z,12.89
2023-04-16T17:31:27.653Z,12.69
2023-04-16T17:33:54.781Z,12.65
2023-04-16T17:36:23.076Z,12.67
2023-04-16T17:38:50.688Z,12.26
2023-04-16T17:41:17.851Z,12.61
2023-04-16T17:43:47.946Z,12.66
2023-04-16T17:46:15.268Z,12.61
2023-04-16T17:48:44.046Z,12.32
2023-04-16T17:51:12.981Z,12.42
2023-04-16T17:53:42.672Z,11.75
2023-04-16T17:56:10.071Z,12.15
2023-04-16T17:58:37.512Z,11.55
2023-04-16T18:01:05.336Z,12.05
2023-04-16T18:03:32.973Z,12.12
2023-04-16T18:06:00.815Z,12.01
2023-04-16T18:08:28.762Z,11.79
2023-04-16T18:10:56.867Z,11.92
2023-04-16T18:13:24.542Z,11.86
2023-04-16T18:15:53.010Z,11.97
2023-04-16T18:18:21.351Z,11.92
2023-04-16T18:20:48.631Z,11.80
2023-04-16T18:23:15.943Z,11.84
2023-04-16T18:25:43.314Z,11.97
2023-04-16T18:28:13.615Z,12.06
2023-04-16T18:30:41.378Z,12.22
2023-04-16T18:33:37.296Z,12.31
2023-04-16T18:35:55.380Z,12.43
2023-04-16T18:38:22.456Z,12.32
2023-04-16T18:40:49.881Z,11.87
2023-04-16T18:43:17.075Z,12.41
2023-04-16T18:45:44.047Z,12.55
2023-04-16T18:48:11.532Z,12.37
2023-04-16T18:50:38.610Z,12.15
2023-04-16T18:53:05.883Z,12.45
2023-04-16T18:55:32.888Z,12.44
2023-04-16T18:58:00.147Z,12.66
2023-04-16T19:00:27.327Z,12.29
2023-04-16T19:02:54.634Z,12.66
2023-04-16T19:05:23.042Z,12.65
2023-04-16T19:07:50.218Z,12.27
2023-04-16T19:10:17.340Z,12.22
2023-04-16T19:12:44.557Z,12.18
2023-04-16T19:15:11.700Z,12.36
2023-04-16T19:17:39.961Z,12.08
2023-04-16T19:20:11.626Z,12.27
2023-04-16T19:22:39.014Z,12.44
2023-04-16T19:25:07.267Z,11.98
2023-04-16T19:27:34.930Z,12.42
2023-04-16T19:30:03.574Z,12.54
2023-04-16T19:32:32.747Z,12.20
2023-04-16T19:34:59.987Z,12.43
2023-04-16T19:37:30.855Z,12.28
2023-04-16T19:39:57.969Z,12.33
2023-04-16T19:42:25.249Z,11.84
2023-04-16T19:44:52.388Z,12.49
2023-04-16T19:47:20.110Z,11.94
2023-04-16T19:49:47.514Z,12.37
2023-04-16T19:52:15.279Z,12.35
2023-04-16T19:54:43.055Z,12.42
2023-04-16T19:57:10.135Z,12.59
2023-04-16T19:59:38.348Z,11.62
2023-04-16T20:02:05.632Z,12.72
2023-04-16T20:04:32.727Z,12.24
2023-04-16T20:06:59.967Z,12.24
2023-04-16T20:09:27.066Z,12.73
2023-04-16T20:11:54.211Z,12.82
2023-04-16T20:14:21.487Z,12.73
2023-04-16T20:16:48.539Z,12.25
2023-04-16T20:19:18.888Z,12.78
2023-04-16T20:21:46.249Z,12.71
2023-04-16T20:24:15.522Z,12.79
2023-04-16T20:26:43.009Z,12.81
2023-04-16T20:29:10.692Z,12.52
2023-04-16T20:31:37.795Z,12.52
2023-04-16T20:34:04.816Z,12.78
2023-04-16T20:36:32.002Z,12.81
2023-04-16T20:38:59.903Z,12.31
2023-04-16T20:41:30.051Z,12.97
2023-04-16T20:43:57.057Z,13.00
2023-04-16T20:46:30.298Z,12.79
2023-04-16T20:48:57.616Z,13.04
2023-04-16T20:51:24.628Z,13.10
2023-04-16T20:53:52.295Z,13.05
2023-04-16T20:56:19.594Z,13.15
2023-04-16T20:58:46.674Z,13.07
2023-04-16T21:01:13.673Z,13.07
2023-04-16T21:03:40.871Z,12.86
2023-04-16T21:06:08.375Z,13.11
2023-04-16T21:08:35.832Z,12.83
2023-04-16T21:11:02.802Z,12.76
2023-04-16T21:13:29.891Z,13.09
2023-04-16T21:15:56.877Z,12.88
2023-04-16T21:18:23.968Z,12.82
2023-04-16T21:20:51.147Z,12.70
2023-04-16T21:23:18.229Z,12.71
2023-04-16T21:25:45.309Z,12.86
2023-04-16T21:28:12.305Z,12.95
2023-04-16T21:30:39.635Z,12.90
2023-04-16T21:33:07.115Z,12.79
2023-04-16T21:35:34.147Z,12.92
2023-04-16T21:38:01.096Z,12.93
2023-04-16T21:40:28.443Z,12.91
2023-04-16T21:42:55.456Z,12.88
2023-04-16T21:45:22.582Z,12.78
2023-04-16T21:47:49.703Z,12.81
2023-04-16T21:50:16.912Z,12.85
2023-04-16T21:52:46.135Z,12.66
2023-04-16T21:55:14.442Z,12.78
2023-04-16T21:57:41.324Z,12.73
2023-04-16T22:00:12.121Z,12.71
2023-04-16T22:02:41.288Z,12.65
2023-04-16T22:05:09.266Z,12.73
2023-04-16T22:07:36.905Z,12.72
2023-04-16T22:10:04.892Z,12.58
2023-04-16T22:12:32.438Z,12.52
2023-04-16T22:15:02.880Z,12.52
2023-04-16T22:17:34.144Z,12.61
2023-04-16T22:20:21.893Z,12.42
2023-04-16T22:22:49.310Z,12.12
2023-04-16T22:25:16.436Z,12.45
2023-04-16T22:27:43.615Z,12.15
2023-04-16T22:30:11.343Z,12.17
2023-04-16T22:32:38.299Z,12.05
2023-04-16T22:35:05.780Z,12.34
2023-04-16T22:37:33.623Z,12.44
2023-04-16T22:40:00.653Z,12.45
2023-04-16T22:42:27.787Z,12.50
2023-04-16T22:44:54.716Z,12.57
2023-04-16T22:47:22.730Z,12.55
2023-04-16T22:49:50.339Z,12.52
2023-04-16T22:52:17.484Z,12.60
2023-04-16T22:54:44.408Z,12.66
2023-04-16T22:57:11.651Z,12.61
2023-04-16T22:59:39.034Z,12.55
2023-04-16T23:02:07.491Z,12.52
2023-04-16T23:04:34.718Z,12.35
2023-04-16T23:07:01.829Z,12.49
2023-04-16T23:09:28.757Z,12.52
2023-04-16T23:11:56.274Z,12.33
2023-04-16T23:14:23.903Z,12.36
2023-04-16T23:16:51.087Z,12.49
2023-04-16T23:19:18.072Z,12.56
2023-04-16T23:21:45.260Z,12.61
2023-04-16T23:24:12.341Z,12.58
2023-04-16T23:26:39.411Z,12.42
2023-04-16T23:29:06.771Z,12.27
2023-04-16T23:31:33.906Z,12.49
2023-04-16T23:34:02.352Z,12.39
2023-04-16T23:36:29.340Z,12.49
2023-04-16T23:38:56.523Z,12.46
2023-04-16T23:41:23.797Z,12.46
2023-04-16T23:43:50.986Z,12.49
2023-04-16T23:46:18.170Z,12.47
2023-04-16T23:48:45.272Z,12.38
2023-04-16T23:51:12.444Z,12.38
2023-04-16T23:53:40.845Z,12.51
2023-04-16T23:56:11.136Z,12.42
2023-04-16T23:58:38.551Z,12.35
